createdAt,value
2023-03-15T00:00:02.974Z,12.75
2023-03-15T00:02:33.849Z,12.76
2023-03-15T00:05:05.188Z,12.78
2023-03-15T00:07:33.715Z,12.80
2023-03-15T00:10:04.382Z,12.80
2023-03-15T00:12:34.577Z,12.79
2023-03-15T00:15:02.902Z,12.78
2023-03-15T00:17:34.972Z,12.74
2023-03-15T00:20:06.718Z,12.73
2023-03-15T00:22:35.266Z,12.72
2023-03-15T00:25:07.965Z,12.71
2023-03-15T00:27:36.201Z,12.71
2023-03-15T00:30:04.766Z,12.71
2023-03-15T00:32:38.681Z,12.72
2023-03-15T00:35:07.589Z,12.74
2023-03-15T00:37:39.822Z,12.77
2023-03-15T00:40:08.837Z,12.79
2023-03-15T00:42:36.952Z,12.80
2023-03-15T00:45:07.671Z,12.80
2023-03-15T00:47:36.028Z,12.79
2023-03-15T00:50:06.654Z,12.78
2023-03-15T00:52:36.526Z,12.77
2023-03-15T00:55:05.760Z,12.77
2023-03-15T00:57:34.838Z,12.75
2023-03-15T01:00:08.942Z,12.73
2023-03-15T01:02:38.008Z,12.71
2023-03-15T01:05:07.854Z,12.70
2023-03-15T01:07:36.766Z,12.69
2023-03-15T01:10:08.450Z,12.67
2023-03-15T01:12:37.720Z,12.67
2023-03-15T01:15:07.590Z,12.67
2023-03-15T01:17:37.060Z,12.65
2023-03-15T01:20:06.636Z,12.63
2023-03-15T01:22:35.791Z,12.61
2023-03-15T01:25:04.288Z,12.60
2023-03-15T01:27:32.898Z,12.61
2023-03-15T01:30:02.749Z,12.62
2023-03-15T01:32:32.388Z,12.63
2023-03-15T01:35:01.122Z,12.63
2023-03-15T01:37:29.532Z,12.63
2023-03-15T01:39:58.233Z,12.64
2023-03-15T01:42:27.058Z,12.64
2023-03-15T01:45:02.365Z,12.64
2023-03-15T01:47:33.088Z,12.65
2023-03-15T01:50:07.762Z,12.63
2023-03-15T01:52:38.550Z,12.61
2023-03-15T01:55:13.277Z,12.59
2023-03-15T01:57:56.435Z,12.56
2023-03-15T02:00:27.924Z,12.55
2023-03-15T02:03:09.812Z,12.54
2023-03-15T02:05:46.603Z,12.55
2023-03-15T02:08:20.943Z,12.54
2023-03-15T02:10:52.050Z,12.54
2023-03-15T02:13:24.994Z,12.53
2023-03-15T02:15:54.718Z,12.49
2023-03-15T02:18:28.896Z,12.46
2023-03-15T02:21:26.710Z,12.42
2023-03-15T02:24:31.201Z,12.39
2023-03-15T02:26:59.634Z,12.37
2023-03-15T02:29:28.237Z,12.36
2023-03-15T02:31:57.765Z,12.37
2023-03-15T02:34:28.415Z,12.38
2023-03-15T02:36:56.449Z,12.39
2023-03-15T02:39:25.655Z,12.39
2023-03-15T02:41:56.633Z,12.39
2023-03-15T02:44:33.722Z,12.36
2023-03-15T02:47:15.456Z,12.33
2023-03-15T02:49:44.381Z,12.30
2023-03-15T02:52:14.209Z,12.27
2023-03-15T02:54:45.520Z,12.26
2023-03-15T02:57:14.889Z,12.25
2023-03-15T02:59:43.033Z,12.23
2023-03-15T03:02:13.591Z,12.21
2023-03-15T03:04:44.804Z,12.20
2023-03-15T03:07:13.685Z,12.20
2023-03-15T03:10:05.968Z,12.21
2023-03-15T03:12:42.140Z,12.21
2023-03-15T03:15:11.546Z,12.22
2023-03-15T03:17:41.326Z,12.21
2023-03-15T03:20:10.708Z,12.20
2023-03-15T03:22:45.099Z,12.20
2023-03-15T03:25:13.550Z,12.19
2023-03-15T03:27:41.776Z,12.18
2023-03-15T03:30:12.656Z,12.16
2023-03-15T03:32:43.374Z,12.14
2023-03-15T03:35:15.591Z,12.13
2023-03-15T03:37:44.532Z,12.12
2023-03-15T03:40:20.156Z,12.11
2023-03-15T03:42:48.351Z,12.10
2023-03-15T03:45:18.578Z,12.09
2023-03-15T03:47:48.488Z,12.08
2023-03-15T03:50:16.707Z,12.07
2023-03-15T03:52:46.914Z,12.07
2023-03-15T03:55:25.313Z,12.07
2023-03-15T03:57:54.465Z,12.06
2023-03-15T04:00:41.916Z,12.07
2023-03-15T04:03:10.714Z,12.09
2023-03-15T04:05:42.526Z,12.09
2023-03-15T04:08:11.597Z,12.08
2023-03-15T04:10:40.867Z,12.08
2023-03-15T04:13:09.452Z,12.08
2023-03-15T04:15:38.020Z,12.09
2023-03-15T04:18:08.833Z,12.10
2023-03-15T04:20:46.979Z,12.12
2023-03-15T04:23:16.514Z,12.14
2023-03-15T04:26:01.954Z,12.15
2023-03-15T04:28:42.961Z,12.15
2023-03-15T04:31:38.427Z,12.13
2023-03-15T04:34:30.577Z,12.12
2023-03-15T04:37:01.567Z,12.12
2023-03-15T04:39:42.876Z,12.12
2023-03-15T04:42:37.202Z,12.10
2023-03-15T04:45:07.222Z,12.09
2023-03-15T04:48:06.388Z,12.09
2023-03-15T04:50:54.769Z,12.09
2023-03-15T04:53:40.002Z,12.10
2023-03-15T04:56:36.761Z,12.09
2023-03-15T04:59:40.065Z,12.08
2023-03-15T05:02:32.775Z,12.07
2023-03-15T05:05:23.205Z,12.06
2023-03-15T05:08:01.301Z,12.05
2023-03-15T05:10:53.015Z,12.04
2023-03-15T05:13:47.263Z,12.00
2023-03-15T05:16:39.818Z,11.98
2023-03-15T05:19:25.116Z,11.94
2023-03-15T05:22:26.005Z,11.92
2023-03-15T05:25:14.074Z,11.90
2023-03-15T05:28:08.538Z,11.88
2023-03-15T05:30:56.273Z,11.85
2023-03-15T05:33:49.198Z,11.83
2023-03-15T05:36:39.142Z,11.78
2023-03-15T05:39:34.833Z,11.74
2023-03-15T05:42:02.919Z,11.72
2023-03-15T05:44:55.443Z,11.70
2023-03-15T05:47:42.845Z,11.68
2023-03-15T05:50:33.742Z,11.66
2023-03-15T05:53:27.892Z,11.63
2023-03-15T05:56:05.799Z,11.58
2023-03-15T05:58:53.156Z,11.56
2023-03-15T06:01:39.852Z,11.60
2023-03-15T06:04:14.898Z,11.57
2023-03-15T06:06:43.163Z,11.51
2023-03-15T06:09:11.457Z,11.49
2023-03-15T06:11:41.590Z,11.47
2023-03-15T06:14:12.632Z,11.46
2023-03-15T06:16:53.564Z,11.44
2023-03-15T06:19:24.842Z,11.41
2023-03-15T06:21:55.051Z,11.39
2023-03-15T06:24:31.456Z,11.38
2023-03-15T06:26:59.565Z,11.42
2023-03-15T06:29:28.053Z,11.44
2023-03-15T06:31:56.902Z,11.41
2023-03-15T06:34:25.821Z,11.39
2023-03-15T06:37:01.342Z,11.37
2023-03-15T06:39:34.477Z,11.36
2023-03-15T06:42:04.511Z,11.34
2023-03-15T06:44:35.400Z,11.33
2023-03-15T06:47:06.453Z,11.38
2023-03-15T06:49:35.768Z,11.42
2023-03-15T06:52:05.440Z,11.41
2023-03-15T06:54:34.402Z,11.39
2023-03-15T06:57:02.695Z,11.38
2023-03-15T06:59:31.262Z,11.35
2023-03-15T07:02:00.612Z,11.23
2023-03-15T07:04:29.254Z,11.06
2023-03-15T07:06:57.434Z,10.92
2023-03-15T07:09:25.796Z,10.80
2023-03-15T07:11:54.278Z,10.70
2023-03-15T07:14:22.419Z,10.59
2023-03-15T07:16:50.764Z,10.49
2023-03-15T07:19:18.886Z,10.38
2023-03-15T07:21:49.499Z,10.23
2023-03-15T07:24:18.421Z,10.07
2023-03-15T07:26:46.679Z,9.91
2023-03-15T07:29:15.072Z,9.75
2023-03-15T07:31:43.800Z,9.62
2023-03-15T07:34:12.021Z,9.49
2023-03-15T07:36:43.139Z,9.36
2023-03-15T07:39:11.859Z,9.35
2023-03-15T07:41:42.466Z,9.35
2023-03-15T07:44:23.259Z,9.30
2023-03-15T07:46:51.437Z,9.22
2023-03-15T07:49:20.004Z,9.14
2023-03-15T07:51:48.182Z,9.01
2023-03-15T07:54:16.333Z,8.87
2023-03-15T07:56:45.686Z,8.76
2023-03-15T07:59:13.870Z,8.65
2023-03-15T08:01:44.268Z,8.55
2023-03-15T08:04:13.345Z,8.46
2023-03-15T08:06:45.937Z,8.37
2023-03-15T08:09:14.167Z,8.26
2023-03-15T08:11:43.521Z,8.15
2023-03-15T08:14:13.912Z,8.15
2023-03-15T08:16:43.755Z,8.15
2023-03-15T08:19:17.384Z,8.06
2023-03-15T08:21:47.220Z,8.00
2023-03-15T08:24:15.688Z,7.96
2023-03-15T08:26:49.100Z,7.94
2023-03-15T08:29:17.277Z,7.91
2023-03-15T08:31:45.471Z,7.86
2023-03-15T08:34:13.696Z,7.81
2023-03-15T08:36:51.593Z,7.75
2023-03-15T08:39:19.807Z,7.73
2023-03-15T08:41:50.112Z,7.71
2023-03-15T08:44:18.401Z,7.62
2023-03-15T08:46:46.584Z,7.52
2023-03-15T08:49:14.768Z,7.43
2023-03-15T08:51:47.629Z,7.33
2023-03-15T08:54:15.880Z,7.20
2023-03-15T08:56:50.927Z,7.12
2023-03-15T08:59:31.348Z,7.07
2023-03-15T09:02:01.233Z,7.08
2023-03-15T09:04:31.844Z,7.08
2023-03-15T09:07:00.557Z,7.05
2023-03-15T09:09:30.180Z,6.99
2023-03-15T09:11:58.732Z,6.95
2023-03-15T09:14:27.313Z,6.93
2023-03-15T09:16:57.984Z,6.86
2023-03-15T09:19:26.154Z,6.77
2023-03-15T09:21:55.895Z,6.72
2023-03-15T09:24:26.825Z,6.71
2023-03-15T09:26:56.478Z,6.68
2023-03-15T09:29:27.886Z,6.62
2023-03-15T09:31:56.576Z,6.53
2023-03-15T09:34:27.460Z,6.48
2023-03-15T09:36:58.182Z,6.41
2023-03-15T09:39:26.430Z,6.35
2023-03-15T09:41:56.769Z,6.37
2023-03-15T09:44:31.851Z,6.35
2023-03-15T09:47:05.812Z,6.29
2023-03-15T09:49:42.042Z,6.23
2023-03-15T09:52:23.569Z,6.20
2023-03-15T09:54:55.500Z,6.16
2023-03-15T09:57:25.942Z,6.08
2023-03-15T09:59:54.152Z,6.09
2023-03-15T10:02:27.765Z,6.10
2023-03-15T10:05:16.380Z,6.05
2023-03-15T10:07:46.666Z,5.98
2023-03-15T10:11:18.171Z,5.95
2023-03-15T10:13:55.566Z,5.91
2023-03-15T10:16:43.809Z,5.95
2023-03-15T10:19:19.181Z,5.96
2023-03-15T10:22:05.046Z,5.90
2023-03-15T10:24:57.110Z,5.83
2023-03-15T10:27:43.251Z,5.75
2023-03-15T10:30:21.663Z,5.72
2023-03-15T10:32:54.814Z,5.76
2023-03-15T10:35:23.023Z,5.77
2023-03-15T10:37:54.419Z,5.68
2023-03-15T10:40:45.455Z,5.62
2023-03-15T10:43:23.299Z,5.59
2023-03-15T10:45:59.109Z,5.58
2023-03-15T10:48:28.611Z,5.64
2023-03-15T10:50:59.280Z,5.68
2023-03-15T10:53:28.113Z,5.67
2023-03-15T10:56:01.637Z,5.64
2023-03-15T10:58:40.984Z,5.63
2023-03-15T11:01:14.037Z,5.60
2023-03-15T11:03:44.181Z,5.59
2023-03-15T11:06:21.275Z,5.66
2023-03-15T11:09:08.322Z,5.71
2023-03-15T11:12:03.935Z,5.70
2023-03-15T11:14:38.555Z,5.67
2023-03-15T11:17:08.715Z,5.63
2023-03-15T11:19:42.295Z,5.59
2023-03-15T11:22:13.280Z,5.64
2023-03-15T11:24:41.993Z,5.65
2023-03-15T11:27:12.314Z,5.58
2023-03-15T11:29:49.684Z,5.55
2023-03-15T11:32:29.363Z,5.52
2023-03-15T11:35:05.558Z,5.49
2023-03-15T11:37:38.892Z,5.54
2023-03-15T11:40:12.113Z,5.55
2023-03-15T11:42:51.648Z,5.51
2023-03-15T11:45:58.510Z,5.47
2023-03-15T11:48:50.282Z,5.41
2023-03-15T11:51:18.722Z,5.38
2023-03-15T11:54:01.875Z,5.47
2023-03-15T11:56:47.162Z,5.52
2023-03-15T11:59:24.555Z,5.51
2023-03-15T12:01:55.915Z,5.49
2023-03-15T12:04:28.931Z,5.47
2023-03-15T12:06:57.861Z,5.47
2023-03-15T12:09:33.044Z,5.53
2023-03-15T12:12:26.658Z,5.59
2023-03-15T12:15:16.055Z,5.56
2023-03-15T12:17:51.640Z,5.52
2023-03-15T12:20:27.281Z,5.47
2023-03-15T12:23:18.998Z,5.45
2023-03-15T12:26:06.444Z,5.51
2023-03-15T12:28:40.597Z,5.55
2023-03-15T12:31:13.372Z,5.52
2023-03-15T12:33:53.142Z,5.47
2023-03-15T12:36:40.111Z,5.44
2023-03-15T12:39:18.014Z,5.40
2023-03-15T12:41:48.447Z,5.46
2023-03-15T12:44:32.171Z,5.49
2023-03-15T12:47:04.785Z,5.48
2023-03-15T12:49:35.732Z,5.46
2023-03-15T12:52:17.473Z,5.44
2023-03-15T12:54:52.281Z,5.41
2023-03-15T12:57:25.331Z,5.47
2023-03-15T13:00:06.715Z,5.50
2023-03-15T13:02:43.812Z,5.49
2023-03-15T13:05:28.707Z,5.44
2023-03-15T13:08:09.113Z,5.40
2023-03-15T13:10:37.959Z,5.35
2023-03-15T13:13:33.984Z,5.39
2023-03-15T13:16:17.540Z,5.42
2023-03-15T13:18:59.842Z,5.39
2023-03-15T13:21:36.126Z,5.36
2023-03-15T13:24:04.804Z,5.34
2023-03-15T13:26:48.430Z,5.29
2023-03-15T13:29:21.413Z,5.25
2023-03-15T13:32:00.754Z,5.29
2023-03-15T13:34:31.095Z,5.31
2023-03-15T13:37:00.442Z,5.30
2023-03-15T13:39:33.761Z,5.27
2023-03-15T13:42:04.112Z,5.26
2023-03-15T13:44:32.971Z,5.27
2023-03-15T13:47:01.439Z,5.33
2023-03-15T13:49:33.563Z,5.37
2023-03-15T13:52:12.443Z,5.37
2023-03-15T13:54:41.056Z,5.35
2023-03-15T13:57:16.494Z,5.33
2023-03-15T14:00:00.347Z,5.32
2023-03-15T14:02:33.522Z,5.39
2023-03-15T14:05:10.972Z,5.41
2023-03-15T14:07:46.571Z,5.37
2023-03-15T14:10:23.670Z,5.34
2023-03-15T14:12:57.944Z,5.31
2023-03-15T14:15:29.271Z,5.35
2023-03-15T14:18:17.158Z,5.39
2023-03-15T14:20:47.507Z,5.36
2023-03-15T14:23:20.213Z,5.31
2023-03-15T14:25:54.402Z,5.29
2023-03-15T14:28:25.062Z,5.26
2023-03-15T14:30:58.502Z,5.32
2023-03-15T14:33:34.979Z,5.36
2023-03-15T14:36:05.207Z,5.33
2023-03-15T14:38:38.985Z,5.30
2023-03-15T14:41:34.477Z,5.28
2023-03-15T14:44:03.944Z,5.27
2023-03-15T14:46:32.434Z,5.33
2023-03-15T14:49:01.326Z,5.38
2023-03-15T14:51:31.148Z,5.38
2023-03-15T14:54:00.136Z,5.36
2023-03-15T14:56:28.698Z,5.36
2023-03-15T14:58:57.476Z,5.35
2023-03-15T15:01:27.102Z,5.41
2023-03-15T15:04:01.914Z,5.47
2023-03-15T15:06:32.169Z,5.47
2023-03-15T15:09:02.407Z,5.45
2023-03-15T15:11:30.788Z,5.43
2023-03-15T15:14:11.246Z,5.42
2023-03-15T15:16:41.042Z,5.46
2023-03-15T15:19:09.656Z,5.51
2023-03-15T15:21:42.159Z,5.49
2023-03-15T15:24:16.116Z,5.48
2023-03-15T15:26:44.385Z,5.46
2023-03-15T15:29:14.865Z,5.53
2023-03-15T15:31:43.645Z,5.58
2023-03-15T15:34:13.443Z,5.57
2023-03-15T15:36:43.767Z,5.55
2023-03-15T15:39:20.026Z,5.53
2023-03-15T15:41:48.216Z,5.59
2023-03-15T15:44:19.804Z,5.63
2023-03-15T15:46:48.730Z,5.62
2023-03-15T15:49:18.313Z,5.59
2023-03-15T15:51:52.235Z,5.58
2023-03-15T15:54:26.330Z,5.55
2023-03-15T15:56:58.979Z,5.62
2023-03-15T15:59:27.929Z,5.68
2023-03-15T16:02:01.211Z,5.66
2023-03-15T16:04:30.367Z,5.63
2023-03-15T16:07:02.629Z,5.60
2023-03-15T16:09:31.977Z,5.57
2023-03-15T16:12:02.886Z,5.64
2023-03-15T16:14:32.380Z,5.70
2023-03-15T16:17:03.810Z,5.69
2023-03-15T16:19:31.986Z,5.68
2023-03-15T16:22:00.616Z,5.67
2023-03-15T16:24:35.988Z,5.66
2023-03-15T16:27:06.107Z,5.71
2023-03-15T16:29:39.570Z,5.74
2023-03-15T16:32:17.883Z,5.72
2023-03-15T16:34:53.151Z,5.70
2023-03-15T16:37:26.384Z,5.68
2023-03-15T16:39:56.164Z,5.66
2023-03-15T16:42:25.882Z,5.71
2023-03-15T16:44:54.832Z,5.75
2023-03-15T16:47:22.973Z,5.73
2023-03-15T16:49:51.693Z,5.71
2023-03-15T16:52:22.756Z,5.68
2023-03-15T16:54:51.201Z,5.67
2023-03-15T16:57:22.020Z,5.72
2023-03-15T16:59:52.086Z,5.75
2023-03-15T17:02:25.260Z,5.73
2023-03-15T17:04:54.111Z,5.70
2023-03-15T17:07:32.988Z,5.66
2023-03-15T17:10:21.974Z,5.64
2023-03-15T17:12:53.491Z,5.71
2023-03-15T17:15:25.963Z,5.72
2023-03-15T17:17:57.727Z,5.66
2023-03-15T17:20:29.908Z,5.64
2023-03-15T17:23:08.258Z,5.61
2023-03-15T17:25:36.821Z,5.60
2023-03-15T17:28:06.500Z,5.69
2023-03-15T17:30:37.054Z,5.74
2023-03-15T17:33:11.384Z,5.72
2023-03-15T17:35:44.458Z,5.68
2023-03-15T17:38:19.305Z,5.65
2023-03-15T17:40:48.814Z,5.61
2023-03-15T17:43:17.500Z,5.56
2023-03-15T17:45:45.875Z,5.58
2023-03-15T17:48:15.895Z,5.61
2023-03-15T17:50:45.552Z,5.58
2023-03-15T17:53:20.280Z,5.56
2023-03-15T17:55:50.884Z,5.53
2023-03-15T17:58:21.989Z,5.50
2023-03-15T18:00:51.138Z,5.48
2023-03-15T18:03:19.448Z,5.54
2023-03-15T18:05:48.014Z,5.59
2023-03-15T18:08:35.290Z,5.57
2023-03-15T18:11:34.031Z,5.52
2023-03-15T18:14:13.016Z,5.46
2023-03-15T18:16:49.945Z,5.41
2023-03-15T18:19:18.431Z,5.37
2023-03-15T18:21:46.756Z,5.33
2023-03-15T18:24:15.962Z,5.36
2023-03-15T18:26:44.620Z,5.37
2023-03-15T18:29:15.639Z,5.33
2023-03-15T18:31:45.086Z,5.30
2023-03-15T18:34:15.919Z,5.27
2023-03-15T18:36:44.302Z,5.24
2023-03-15T18:39:13.099Z,5.21
2023-03-15T18:41:41.328Z,5.23
2023-03-15T18:44:10.756Z,5.22
2023-03-15T18:46:39.025Z,5.17
2023-03-15T18:49:07.238Z,5.13
2023-03-15T18:51:37.075Z,5.11
2023-03-15T18:54:06.388Z,5.10
2023-03-15T18:56:35.324Z,5.09
2023-03-15T18:59:04.044Z,5.13
2023-03-15T19:01:32.990Z,5.17
2023-03-15T19:04:01.309Z,5.14
2023-03-15T19:06:32.377Z,5.09
2023-03-15T19:09:00.816Z,5.06
2023-03-15T19:11:31.809Z,5.04
2023-03-15T19:14:03.351Z,5.03
2023-03-15T19:16:32.788Z,5.08
2023-03-15T19:19:01.413Z,5.10
2023-03-15T19:21:34.047Z,5.09
2023-03-15T19:24:02.207Z,5.04
2023-03-15T19:26:31.051Z,5.00
2023-03-15T19:28:59.604Z,4.97
2023-03-15T19:31:27.866Z,4.94
2023-03-15T19:34:01.636Z,4.98
2023-03-15T19:36:31.573Z,5.02
2023-03-15T19:38:59.641Z,5.00
2023-03-15T19:41:27.740Z,4.98
2023-03-15T19:43:56.212Z,4.97
2023-03-15T19:46:30.781Z,4.97
2023-03-15T19:48:58.859Z,4.98
2023-03-15T19:51:27.893Z,5.03
2023-03-15T19:53:57.050Z,5.07
2023-03-15T19:56:26.110Z,5.02
2023-03-15T19:58:57.276Z,4.96
2023-03-15T20:01:25.797Z,4.95
2023-03-15T20:03:53.868Z,4.94
2023-03-15T20:06:22.182Z,4.95
2023-03-15T20:08:50.410Z,5.02
2023-03-15T20:11:25.286Z,5.07
2023-03-15T20:13:53.979Z,5.07
2023-03-15T20:16:22.376Z,5.04
2023-03-15T20:18:56.225Z,5.03
2023-03-15T20:21:24.389Z,5.02
2023-03-15T20:23:52.613Z,5.02
2023-03-15T20:26:22.612Z,5.07
2023-03-15T20:28:50.968Z,5.10
2023-03-15T20:31:22.147Z,5.08
2023-03-15T20:33:51.829Z,5.04
2023-03-15T20:36:19.931Z,4.99
2023-03-15T20:38:48.157Z,4.95
2023-03-15T20:41:18.498Z,4.89
2023-03-15T20:43:46.648Z,4.85
2023-03-15T20:46:16.932Z,4.89
2023-03-15T20:48:45.150Z,4.91
2023-03-15T20:51:13.527Z,4.85
2023-03-15T20:53:41.644Z,4.79
2023-03-15T20:56:10.995Z,4.74
2023-03-15T20:58:39.844Z,4.69
2023-03-15T21:01:17.199Z,4.62
2023-03-15T21:03:47.433Z,4.57
2023-03-15T21:06:15.727Z,4.59
2023-03-15T21:08:46.155Z,4.60
2023-03-15T21:11:14.918Z,4.56
2023-03-15T21:13:43.072Z,4.55
2023-03-15T21:16:13.295Z,4.53
2023-03-15T21:18:44.991Z,4.51
2023-03-15T21:21:13.214Z,4.48
2023-03-15T21:23:42.175Z,4.46
2023-03-15T21:26:11.413Z,4.51
2023-03-15T21:28:41.619Z,4.55
2023-03-15T21:31:09.876Z,4.54
2023-03-15T21:33:37.967Z,4.53
2023-03-15T21:36:06.467Z,4.50
2023-03-15T21:38:36.453Z,4.48
2023-03-15T21:41:09.330Z,4.47
2023-03-15T21:43:38.145Z,4.45
2023-03-15T21:46:08.023Z,4.45
2023-03-15T21:48:37.407Z,4.52
2023-03-15T21:51:05.958Z,4.57
2023-03-15T21:53:35.794Z,4.58
2023-03-15T21:56:05.393Z,4.57
2023-03-15T21:58:33.691Z,4.57
2023-03-15T22:01:06.047Z,4.55
2023-03-15T22:03:35.400Z,4.54
2023-03-15T22:06:08.889Z,4.54
2023-03-15T22:08:37.608Z,4.61
2023-03-15T22:11:05.937Z,4.66
2023-03-15T22:13:37.232Z,4.65
2023-03-15T22:16:06.030Z,4.64
2023-03-15T22:18:34.248Z,4.62
2023-03-15T22:21:03.644Z,4.61
2023-03-15T22:23:31.824Z,4.61
2023-03-15T22:26:01.697Z,4.60
2023-03-15T22:29:25.677Z,4.63
2023-03-15T22:31:53.735Z,4.68
2023-03-15T22:34:22.087Z,4.72
2023-03-15T22:36:50.360Z,4.70
2023-03-15T22:39:19.637Z,4.67
2023-03-15T22:41:48.098Z,4.65
2023-03-15T22:44:20.870Z,4.63
2023-03-15T22:46:49.582Z,4.61
2023-03-15T22:49:17.958Z,4.60
2023-03-15T22:51:51.271Z,4.65
2023-03-15T22:54:19.852Z,4.69
2023-03-15T22:56:48.292Z,4.67
2023-03-15T22:59:16.808Z,4.64
2023-03-15T23:01:44.917Z,4.58
2023-03-15T23:04:13.498Z,4.52
2023-03-15T23:06:42.475Z,4.46
2023-03-15T23:09:11.945Z,4.40
2023-03-15T23:11:40.550Z,4.35
2023-03-15T23:14:08.933Z,4.40
2023-03-15T23:16:42.872Z,4.43
2023-03-15T23:19:11.437Z,4.42
2023-03-15T23:21:40.018Z,4.38
2023-03-15T23:24:08.954Z,4.34
2023-03-15T23:26:37.785Z,4.30
2023-03-15T23:29:10.987Z,4.26
2023-03-15T23:31:41.843Z,4.24
2023-03-15T23:34:10.099Z,4.21
2023-03-15T23:36:39.736Z,4.27
2023-03-15T23:39:07.788Z,4.33
2023-03-15T23:41:39.472Z,4.31
2023-03-15T23:44:07.618Z,4.26
2023-03-15T23:46:38.804Z,4.20
2023-03-15T23:49:07.102Z,4.16
2023-03-15T23:51:35.246Z,4.13
2023-03-15T23:54:05.097Z,4.10
2023-03-15T23:56:33.849Z,4.08
2023-03-15T23:59:02.008Z,4.14
